createdAt,value
2022-11-14T00:01:46.493Z,100276.91
2022-11-14T00:06:54.330Z,100276.16
2022-11-14T00:12:01.676Z,100278.10
2022-11-14T00:17:08.676Z,100273.93
2022-11-14T00:22:15.672Z,100269.08
2022-11-14T00:27:22.562Z,100263.09
2022-11-14T00:32:29.617Z,100265.89
2022-11-14T00:37:36.986Z,100261.96
2022-11-14T00:42:45.015Z,100257.60
2022-11-14T00:47:52.115Z,100254.62
2022-11-14T00:52:59.044Z,100256.47
2022-11-14T00:58:06.118Z,100256.20
2022-11-14T01:03:11.581Z,100253.46
2022-11-14T01:08:20.124Z,100254.26
2022-11-14T01:13:27.859Z,100246.71
2022-11-14T01:18:35.654Z,100243.28
2022-11-14T01:23:42.799Z,100244.83
2022-11-14T01:28:48.321Z,100239.11
2022-11-14T01:33:56.319Z,100236.86
2022-11-14T01:39:03.245Z,100235.68
2022-11-14T01:44:17.105Z,100232.83
2022-11-14T01:49:27.637Z,100226.71
2022-11-14T01:54:37.624Z,100221.95
2022-11-14T01:59:50.615Z,100221.89
2022-11-14T02:05:02.081Z,100221.23
2022-11-14T02:10:12.379Z,100218.44
2022-11-14T02:15:19.974Z,100212.11
2022-11-14T02:20:29.686Z,100203.70
2022-11-14T02:25:36.947Z,100207.48
2022-11-14T02:30:43.959Z,100205.25
2022-11-14T02:35:51.051Z,100197.91
2022-11-14T02:40:56.408Z,100190.96
2022-11-14T02:46:05.812Z,100188.07
2022-11-14T02:51:13.096Z,100182.50
2022-11-14T02:56:20.506Z,100188.88
2022-11-14T03:01:27.597Z,100189.18
2022-11-14T03:06:33.163Z,100186.69
2022-11-14T03:11:41.463Z,100182.63
2022-11-14T03:16:48.384Z,100179.90
2022-11-14T03:21:55.350Z,100172.68
2022-11-14T03:27:02.388Z,100167.57
2022-11-14T03:32:07.928Z,100167.30
2022-11-14T03:37:14.963Z,100168.28
2022-11-14T03:42:21.968Z,100165.95
2022-11-14T03:47:27.650Z,100171.09
2022-11-14T03:52:34.660Z,100163.84
2022-11-14T03:57:41.852Z,100167.70
2022-11-14T04:02:49.116Z,100166.56
2022-11-14T04:07:54.630Z,100157.58
2022-11-14T04:13:01.638Z,100147.89
2022-11-14T04:18:08.576Z,100147.14
2022-11-14T04:23:15.688Z,100145.88
2022-11-14T04:28:22.836Z,100140.69
2022-11-14T04:33:28.646Z,100141.56
2022-11-14T04:38:35.711Z,100139.31
2022-11-14T04:43:46.725Z,100140.16
2022-11-14T04:48:56.871Z,100128.49
2022-11-14T04:54:02.332Z,100135.66
2022-11-14T04:59:09.663Z,100140.61
2022-11-14T05:04:16.740Z,100136.63
2022-11-14T05:09:22.273Z,100137.95
2022-11-14T05:14:29.327Z,100127.39
2022-11-14T05:19:36.426Z,100132.05
2022-11-14T05:24:43.726Z,100126.89
2022-11-14T05:29:50.726Z,100112.54
2022-11-14T05:34:57.833Z,100108.16
2022-11-14T05:40:03.221Z,100114.34
2022-11-14T05:45:12.749Z,100123.52
2022-11-14T05:50:19.845Z,100121.83
2022-11-14T05:55:25.650Z,100114.95
2022-11-14T06:00:39.644Z,100110.69
2022-11-14T06:05:49.445Z,100116.92
2022-11-14T06:10:56.328Z,100126.89
2022-11-14T06:16:05.070Z,100125.40
2022-11-14T06:21:15.074Z,100130.73
2022-11-14T06:26:27.641Z,100127.95
2022-11-14T06:31:34.475Z,100135.39
2022-11-14T06:36:41.331Z,100140.30
2022-11-14T06:41:48.381Z,100139.88
2022-11-14T06:46:56.723Z,100133.69
2022-11-14T06:52:03.855Z,100131.36
2022-11-14T06:57:09.317Z,100125.98
2022-11-14T07:02:21.696Z,100126.95
2022-11-14T07:07:29.216Z,100115.48
2022-11-14T07:12:34.675Z,100107.85
2022-11-14T07:17:41.606Z,100104.20
2022-11-14T07:22:49.706Z,100106.46
2022-11-14T07:27:58.288Z,100105.80
2022-11-14T07:33:05.169Z,100112.20
2022-11-14T07:38:12.351Z,100111.42
2022-11-14T07:43:17.723Z,100111.58
2022-11-14T07:48:24.664Z,100110.80
2022-11-14T07:53:32.281Z,100116.65
2022-11-14T07:58:40.655Z,100115.73
2022-11-14T08:03:47.966Z,100116.57
2022-11-14T08:08:53.365Z,100109.96
2022-11-14T08:14:00.322Z,100110.41
2022-11-14T08:19:07.521Z,100098.61
2022-11-14T08:24:14.416Z,100085.98
2022-11-14T08:29:21.444Z,100079.13
2022-11-14T08:34:29.418Z,100080.49
2022-11-14T08:39:36.267Z,100079.54
2022-11-14T08:44:46.679Z,100065.21
2022-11-14T08:49:56.243Z,100062.74
2022-11-14T08:55:03.382Z,100057.05
2022-11-14T09:00:10.176Z,100063.56
2022-11-14T09:05:17.506Z,100063.47
2022-11-14T09:10:24.715Z,100062.16
2022-11-14T09:15:32.053Z,100058.77
2022-11-14T09:20:40.479Z,100066.14
2022-11-14T09:25:47.735Z,100066.33
2022-11-14T09:30:54.958Z,100062.64
2022-11-14T09:36:03.409Z,100056.23
2022-11-14T09:41:24.860Z,100050.70
2022-11-14T09:46:38.710Z,100042.38
2022-11-14T09:51:51.295Z,100039.67
2022-11-14T09:56:58.502Z,100040.02
2022-11-14T10:02:16.902Z,100035.69
2022-11-14T10:07:35.995Z,100036.44
2022-11-14T10:12:56.493Z,100029.05
2022-11-14T10:18:20.011Z,100028.77
2022-11-14T10:23:38.180Z,100026.23
2022-11-14T10:29:13.637Z,100024.54
2022-11-14T10:34:30.752Z,100014.41
2022-11-14T10:39:44.848Z,100004.42
2022-11-14T10:44:57.374Z,99997.18
2022-11-14T10:50:16.975Z,99989.86
2022-11-14T10:55:49.693Z,99987.38
2022-11-14T11:00:53.642Z,99987.59
2022-11-14T11:06:00.750Z,99983.86
2022-11-14T11:11:31.230Z,99980.34
2022-11-14T11:16:38.190Z,99973.43
2022-11-14T11:21:53.361Z,99964.11
2022-11-14T11:27:22.837Z,99960.64
2022-11-14T11:32:30.545Z,99959.65
2022-11-14T11:37:42.733Z,99955.89
2022-11-14T11:43:36.653Z,99956.74
2022-11-14T11:48:23.702Z,99951.10
2022-11-14T11:53:38.682Z,99944.24
2022-11-14T11:58:49.935Z,99941.05
2022-11-14T12:03:57.804Z,99934.95
2022-11-14T12:09:16.112Z,99940.30
2022-11-14T12:14:51.748Z,99934.83
2022-11-14T12:20:10.834Z,99926.68
2022-11-14T12:25:56.830Z,99925.95
2022-11-14T12:31:07.338Z,99915.39
2022-11-14T12:36:15.432Z,99906.30
2022-11-14T12:41:28.622Z,99905.41
2022-11-14T12:47:15.964Z,99899.80
2022-11-14T12:52:44.074Z,99891.16
2022-11-14T12:58:03.520Z,99888.91
2022-11-14T13:03:37.772Z,99883.83
2022-11-14T13:09:05.356Z,99878.30
2022-11-14T13:14:28.012Z,99871.73
2022-11-14T13:19:53.328Z,99868.72
2022-11-14T13:25:27.694Z,99868.70
2022-11-14T13:31:20.795Z,99865.10
2022-11-14T13:36:36.133Z,99852.40
2022-11-14T13:42:19.431Z,99857.17
2022-11-14T13:47:52.835Z,99851.12
2022-11-14T13:53:00.683Z,99839.29
2022-11-14T13:58:18.785Z,99837.30
2022-11-14T14:03:38.575Z,99834.46
2022-11-14T14:09:05.556Z,99832.52
2022-11-14T14:14:32.433Z,99824.65
2022-11-14T14:19:53.455Z,99817.66
2022-11-14T14:25:11.454Z,99811.74
2022-11-14T14:30:20.516Z,99812.33
2022-11-14T14:35:31.857Z,99809.46
2022-11-14T14:40:43.370Z,99800.52
2022-11-14T14:45:55.397Z,99791.59
2022-11-14T14:51:03.245Z,99790.70
2022-11-14T14:56:21.335Z,99791.82
2022-11-14T15:01:34.014Z,99787.09
2022-11-14T15:06:41.740Z,99785.06
2022-11-14T15:11:51.896Z,99780.41
2022-11-14T15:17:00.345Z,99776.19
2022-11-14T15:22:24.280Z,99780.73
2022-11-14T15:27:32.977Z,99779.12
2022-11-14T15:32:49.176Z,99773.63
2022-11-14T15:43:55.337Z,99782.09
2022-11-14T15:49:02.888Z,99773.59
2022-11-14T15:54:24.653Z,99777.64
2022-11-14T15:59:32.590Z,99777.95
2022-11-14T16:04:45.996Z,99777.21
2022-11-14T16:09:54.337Z,99772.49
2022-11-14T16:14:59.994Z,99771.58
2022-11-14T16:20:09.354Z,99771.17
2022-11-14T16:25:20.240Z,99770.93
2022-11-14T16:30:28.879Z,99767.27
2022-11-14T16:35:36.834Z,99767.66
2022-11-14T16:40:46.203Z,99767.12
2022-11-14T16:45:53.460Z,99764.80
2022-11-14T16:51:01.387Z,99769.48
2022-11-14T16:56:11.842Z,99766.52
2022-11-14T17:01:21.409Z,99767.16
2022-11-14T17:06:29.135Z,99761.92
2022-11-14T17:11:36.290Z,99754.59
2022-11-14T17:16:42.118Z,99749.61
2022-11-14T17:21:49.893Z,99753.44
2022-11-14T17:26:57.539Z,99748.01
2022-11-14T17:32:05.182Z,99745.02
2022-11-14T17:37:12.367Z,99742.45
2022-11-14T17:42:18.048Z,99744.89
2022-11-14T17:47:25.441Z,99737.31
2022-11-14T17:52:32.965Z,99738.63
2022-11-14T17:57:39.971Z,99733.73
2022-11-14T18:02:45.733Z,99731.59
2022-11-14T18:07:52.839Z,99726.81
2022-11-14T18:12:58.408Z,99726.48
2022-11-14T18:18:06.034Z,99713.75
2022-11-14T18:23:13.539Z,99716.75
2022-11-14T18:28:20.847Z,99715.44
2022-11-14T18:33:28.149Z,99710.81
2022-11-14T18:38:36.033Z,99706.73
2022-11-14T18:43:44.613Z,99700.13
2022-11-14T18:48:57.395Z,99696.31
2022-11-14T18:54:04.444Z,99694.34
2022-11-14T18:59:11.841Z,99692.33
2022-11-14T19:04:19.902Z,99690.77
2022-11-14T19:09:27.333Z,99691.23
2022-11-14T19:14:34.580Z,99681.30
2022-11-14T19:19:39.994Z,99678.91
2022-11-14T19:24:47.304Z,99674.26
2022-11-14T19:29:54.458Z,99674.33
2022-11-14T19:35:01.571Z,99667.92
2022-11-14T19:40:11.297Z,99665.36
2022-11-14T19:45:18.223Z,99666.20
2022-11-14T19:50:25.948Z,99671.69
2022-11-14T19:55:33.933Z,99666.73
2022-11-14T20:00:41.471Z,99662.13
2022-11-14T20:05:49.593Z,99649.28
2022-11-14T20:11:01.353Z,99642.13
2022-11-14T20:16:13.170Z,99643.88
2022-11-14T20:21:22.061Z,99646.63
2022-11-14T20:26:29.366Z,99639.47
2022-11-14T20:31:36.394Z,99632.21
2022-11-14T20:37:09.341Z,99630.09
2022-11-14T20:42:10.524Z,99623.77
2022-11-14T20:47:17.625Z,99622.00
2022-11-14T20:52:24.778Z,99617.60
2022-11-14T20:57:30.145Z,99616.74
2022-11-14T21:02:37.711Z,99613.58
2022-11-14T21:07:44.809Z,99606.73
2022-11-14T21:13:12.485Z,99602.01
2022-11-14T21:18:18.058Z,99591.48
2022-11-14T21:23:25.315Z,99588.63
2022-11-14T21:28:34.664Z,99584.11
2022-11-14T21:33:42.327Z,99581.58
2022-11-14T21:38:49.458Z,99583.77
2022-11-14T21:43:56.453Z,99582.96
2022-11-14T21:49:03.487Z,99577.70
2022-11-14T21:54:12.397Z,99575.54
2022-11-14T21:59:21.661Z,99573.77
2022-11-14T22:04:29.084Z,99563.42
2022-11-14T22:09:41.092Z,99567.48
2022-11-14T22:14:50.918Z,99562.79
2022-11-14T22:19:57.915Z,99567.63
2022-11-14T22:25:03.486Z,99563.89
2022-11-14T22:30:12.512Z,99560.27
2022-11-14T22:35:19.940Z,99558.40
2022-11-14T22:40:27.155Z,99556.58
2022-11-14T22:45:34.452Z,99551.00
2022-11-14T22:50:40.124Z,99549.77
2022-11-14T22:55:51.226Z,99547.92
2022-11-14T23:00:58.554Z,99541.98
2022-11-14T23:06:11.487Z,99537.05
2022-11-14T23:11:20.913Z,99536.25
2022-11-14T23:16:30.575Z,99532.74
2022-11-14T23:21:39.199Z,99528.41
2022-11-14T23:26:46.924Z,99519.72
2022-11-14T23:31:54.033Z,99515.63
2022-11-14T23:37:01.449Z,99507.63
2022-11-14T23:42:08.753Z,99497.41
2022-11-14T23:47:15.959Z,99494.34
2022-11-14T23:52:21.430Z,99487.77
2022-11-14T23:57:28.632Z,99477.57
